WetterOnline ( http://www.wetteronline.de )

Wetter aktuell Bad Bramstedt

Aktuelles Wetter: Itzehoe (26m)

6-stündlich | Neueste Meldungen
Ortszeit Temperatur Wetter
So, 16.12. 7:00 -1.1° C bewölkt
So, 16.12. 1:00 -1.1° C wolkenlos
Sa, 15.12. 19:00 -1.2° C wolkig
Sa, 15.12. 13:00 0.4° C bedeckt
Sa, 15.12. 7:00 -0.5° C bedeckt
Sa, 15.12. 1:00 0.1° C bedeckt
Fr, 14.12. 19:00 0.6° C bedeckt
Fr, 14.12. 13:00 1.8° C bedeckt
Ortszeit Temperatur Wetter
So, 16.12. 7:30 -0.9° C wolkig
So, 16.12. 7:10 -0.9° C wolkig
So, 16.12. 7:00 -1.1° C bewölkt
So, 16.12. 6:50 -1.1° C bewölkt
So, 16.12. 6:40 -1.1° C bewölkt
So, 16.12. 6:30 -1.1° C bedeckt
So, 16.12. 6:00 -1.3° C bewölkt
So, 16.12. 5:30 -1.6° C wolkenlos
So, 16.12. 5:00 -1.5° C leicht bewölkt
So, 16.12. 4:30 -1.3° C bewölkt
Ortszeit Relative Feuchte Sichtweite
So, 16.12. 7:00 85% 7 km
So, 16.12. 1:00 80% 16 km
Sa, 15.12. 19:00 75% 18 km
Sa, 15.12. 13:00 85% 8 km
Sa, 15.12. 7:00 85% 14 km
Sa, 15.12. 1:00 84% 13 km
Fr, 14.12. 19:00 88% 19 km
Fr, 14.12. 13:00 85% 35 km
Ortszeit Relative Feuchte Sichtweite
So, 16.12. 7:30 84% 7 km
So, 16.12. 7:10 84% -
So, 16.12. 7:00 85% 7 km
So, 16.12. 6:50 85% -
So, 16.12. 6:40 85% -
So, 16.12. 6:30 86% 7 km
So, 16.12. 6:00 86% 7 km
So, 16.12. 5:30 86% 7 km
So, 16.12. 5:00 86% 8 km
So, 16.12. 4:30 85% 8 km
Ortszeit Niederschlagsmenge Niederschlagsart
So, 16.12. 7:00 0.0 l/m2 in 12 Std. -
So, 16.12. 1:00 0.0 l/m2 in 6 Std. -
Sa, 15.12. 19:00 0.0 l/m2 in 12 Std. -
Sa, 15.12. 13:00 0.0 l/m2 in 6 Std. -
Sa, 15.12. 7:00 0.0 l/m2 in 12 Std. -
Sa, 15.12. 1:00 0.0 l/m2 in 6 Std. -
Fr, 14.12. 19:00 0.1 l/m2 in 12 Std. -
Fr, 14.12. 13:00 0.1 l/m2 in 6 Std. -
Ortszeit Niederschlagsmenge Niederschlagsart
So, 16.12. 7:30 0.0 l/m2 in 1 Std. -
So, 16.12. 7:10 keine Meldung -
So, 16.12. 7:00 0.0 l/m2 in 1 Std. -
So, 16.12. 6:50 keine Meldung -
So, 16.12. 6:40 keine Meldung -
So, 16.12. 6:30 0.0 l/m2 in 1 Std. -
So, 16.12. 6:00 0.0 l/m2 in 1 Std. -
So, 16.12. 5:30 0.0 l/m2 in 1 Std. -
So, 16.12. 5:00 0.0 l/m2 in 1 Std. -
So, 16.12. 4:30 0.0 l/m2 in 1 Std. -
Ortszeit Stärke Spitze Richtung
km/h Bft. km/h Grad Sektor
So, 16.12. 7:00 19 3 37 140° SO
So, 16.12. 1:00 19 3 44 140° SO
Sa, 15.12. 19:00 13 3 30 130° SO
Sa, 15.12. 13:00 11 2 18 140° SO
Sa, 15.12. 7:00 7 2 14 120° SO
Sa, 15.12. 1:00 7 2 18 130° SO
Fr, 14.12. 19:00 7 2 18 100° O
Fr, 14.12. 13:00 7 2 20 90° O
Ortszeit Stärke Spitze Richtung
km/h Bft. km/h Grad Sektor
So, 16.12. 7:30 18 3 32 130° SO
So, 16.12. 7:10 18 3 - 130° SO
So, 16.12. 7:00 19 3 31 140° SO
So, 16.12. 6:50 19 3 - 140° SO
So, 16.12. 6:40 15 3 - 130° SO
So, 16.12. 6:30 15 3 26 140° SO
So, 16.12. 6:00 17 3 35 140° SO
So, 16.12. 5:30 22 4 36 140° SO
So, 16.12. 5:00 20 4 33 140° SO
So, 16.12. 4:30 18 3 32 140° SO
Ortszeit Untergrenze Bedeckung Gattung
total tief tief mittel hoch
So, 16.12. 7:00 960 m 8/8 5/8 - - -
So, 16.12. 1:00 - 0/8 0/8 - - -
Sa, 15.12. 19:00 930 m 6/8 6/8 - - -
Sa, 15.12. 13:00 1080 m 8/8 8/8 - - -
Sa, 15.12. 7:00 1260 m 8/8 8/8 - - -
Sa, 15.12. 1:00 1260 m 8/8 8/8 - - -
Fr, 14.12. 19:00 1080 m 8/8 8/8 - - -
Fr, 14.12. 13:00 1260 m 8/8 8/8 - - -
Ortszeit Bedeckungsgrad in Achtel und Wolkenuntergrenze
So, 16.12. 7:30 2(930m) 8(6600m) 8(7800m)
So, 16.12. 7:10 3(960m) 8(6600m)
So, 16.12. 7:00 5(960m) 8(6900m) 8(8100m)
So, 16.12. 6:50 5(960m) 8(6900m) 8(8100m)
So, 16.12. 6:40 4(960m) 8(6900m) 8(8100m)
So, 16.12. 6:30 8(960m) 8(6900m)
So, 16.12. 6:00 6(960m) 7(7500m)
So, 16.12. 5:30 2(7500m)
So, 16.12. 5:00 4(450m)
So, 16.12. 4:30 7(450m)
Ortszeit Luftdruck NN (hPa) Tendenz (hPa in 3 Std.)
So, 16.12. 7:00 1015 - 2,8
So, 16.12. 1:00 1020 - 3,0
Sa, 15.12. 19:00 1026 - 2,1
Sa, 15.12. 13:00 1029 - 1,1
Sa, 15.12. 7:00 1030 + 0,1
Sa, 15.12. 1:00 1029 - 0,1
Fr, 14.12. 19:00 1028 + 0,4
Fr, 14.12. 13:00 1027 + 0,4
Ortszeit Luftdruck NN (hPa) Tendenz (hPa in 3 Std.)
So, 16.12. 7:30 1015 - 3,0
So, 16.12. 7:10 1015 keine Meldung
So, 16.12. 7:00 1015 - 2,8
So, 16.12. 6:50 1015 keine Meldung
So, 16.12. 6:40 1015 keine Meldung
So, 16.12. 6:30 1016 - 2,5
So, 16.12. 6:00 1016 - 2,9
So, 16.12. 5:30 1016 - 3,1
So, 16.12. 5:00 1017 - 2,5
So, 16.12. 4:30 1018 - 1,9
Ortszeit Schneehöhe (cm)
So, 16.12. 7:00 -
So, 16.12. 1:00 -
Sa, 15.12. 19:00 -
Sa, 15.12. 13:00 -
Sa, 15.12. 7:00 -
Sa, 15.12. 1:00 -
Fr, 14.12. 19:00 -
Fr, 14.12. 13:00 -
Ortszeit Schneehöhe (cm)
So, 16.12. 7:30 -
So, 16.12. 7:10 -
So, 16.12. 7:00 -
So, 16.12. 6:50 -
So, 16.12. 6:40 -
So, 16.12. 6:30 -
So, 16.12. 6:00 -
So, 16.12. 5:30 -
So, 16.12. 5:00 -
So, 16.12. 4:30 -
Link zu dieser Seite / Seite empfehlen

Das Wetter in ...